Immagine casuale
Testata Regione Lazio ARSIAL SIARL

Ultima Misura Rilevata

Temperatura, Umidità, Pioggia, Pressione Radiazione Solare, Venti, Evapotraspirazione, ecc.
Temperature diurne e notturne Direzione vento Legenda
Prov Stazione Data TMin TMed TMax UMed Pioggia PMed
FR ALATRI Basciano 18/07/2018 18,7 25,6 34,6 59 0 1.013
FR ALVITO Az. Ist. S. Benedetto 18/07/2018 15,1 23,3 31,6 70 0 1.015
FR ANAGNI La Gloria 18/07/2018 16 24,3 33,4 64 0 1.013
FR ARPINO Vigne Piane 18/07/2018 18,9 24,6 32,9 60 0 1.012
FR BOVILLE ERNICA Sasso 18/07/2018 18,7 26,2 35,4 59 0 1.014
FR ESPERIA Modale 18/07/2018 18,1 25,1 35,4 52 0 1.011
FR PASTENA Acero 18/07/2018 16,4 24,6 33,4 71 0 1.013
FR PIGLIO Civitella 18/07/2018 16,2 23,7 33,4 64 0 1.023
FR PONTECORVO Melfi di Sotto 18/07/2018 18,2 25,6 34,6 72 0 ----
FR S. ELIA FIUMERAPIDO Portella 18/07/2018 18,5 25,7 34 63 0 1.013
FR S. GIORGIO A LIRI Porto 18/07/2018 18,4 25,8 35,9 73 0 1.015
FR SGURGOLA Campo Lungo 18/07/2018 16,3 24,9 34 67 0 ----
FR VALLECORSA Serbatoio comunale 18/07/2018 18,6 23,8 31,3 68 0 1.016
LT APRILIA Le Ferriere 18/07/2018 18,8 25,2 32,5 72 0 1.014
LT CISTERNA B.go Carso 18/07/2018 16,7 23,8 30,4 81 0 ----
LT CISTERNA Doganella di Ninfa 18/07/2018 17,5 25,4 33,1 65 0 1.014
LT CORI Portone 18/07/2018 18,8 25,8 33,4 58 0 1.014
LT FONDI Capratica 18/07/2018 19,3 25,3 30,2 80 0 1.013
LT FORMIA Loc. Gianola 18/07/2018 19,8 25,2 29,9 77 0 ----
LT ITRI Valle Quercia 18/07/2018 N.D. N.D. N.D. N.D. N.D. N.D.
LT MAENZA Casacotta 18/07/2018 19 25,4 32,2 69 0 1.012
LT MINTURNO Pulcherini 18/07/2018 21,5 26 31 69 0 1.013
LT PONTINIA Cotarda 18/07/2018 17,1 25,1 33,4 78 0 1.015
LT SABAUDIA Acquaviva 18/07/2018 18,7 24,4 29,9 80 0 1.013
LT SONNINO Frasso 18/07/2018 22 26,9 34,7 65 0 1.013
RI ACCUMOLI Terracino 18/07/2018 14,1 20,4 25 53 0 1.014
RI BORGOVELINO Ponte Basso 18/07/2018 13,7 21,8 32,6 64 0 1.014
RI CANTALUPO S. Francesco 18/07/2018 14,1 23,4 32,2 63 0 ----
RI CASTEL DI TORA Monte di Tora 18/07/2018 13,2 21,9 31,4 66 0 1.017
RI CASTELNUOVO FARFA C. Spadone 18/07/2018 16,9 25,4 34,2 56 0 ----
RI CONFIGNI Portella 18/07/2018 17,5 25,7 34 53 0 1.012
RI FARA SABINA Canneto 18/07/2018 19,3 26,5 33,7 47 0 1.019
RI FARA SABINA Sant'Andrea 18/07/2018 17,7 26,2 34 49 0 ----
RI MONTELEONE S. Prato Camino 18/07/2018 14,8 23,8 32,2 57 0 1.014
RI MONTOPOLI IN SABINA Colle Arcone 18/07/2018 17,8 25,2 32,8 62 0 ----
RI MONTOPOLI IN SABINA Villa Caprola 18/07/2018 17,1 26,6 35,3 65 0 ----
RI POGGIO CATINO Pastine 18/07/2018 17,2 25 32,9 59 0 ----
RI POGGIO NATIVO Casali 18/07/2018 18 24,8 31,5 54 0 ----
RI RIETI Piana di Rieti 18/07/2018 12 22,4 31,4 58 0 1.015
RI SCANDRIGLIA Ponticelli 18/07/2018 16,9 24,4 31,1 58 0 ----
RM AGOSTA La Cisterna 18/07/2018 13,6 22,7 34,4 65 0 1.016
RM BRACCIANO Prato Pianciano 18/07/2018 18,1 26,3 35,2 52 0 1.011
RM CANALE MONTERANO Monte Virginio 18/07/2018 14,1 22,9 34,5 67 0 1.014
RM CERVETERI Campo di Mare 18/07/2018 19,5 24,7 30,1 67 0 ----
RM CIVITELLA S.PAOLO Le Cese 18/07/2018 17,4 25,7 34,2 52 0 1.016
RM FIUMICINO Maccarese 18/07/2018 17,2 24,9 32,5 76 0 1.014
RM FIUMICINO Testa di Lepre 18/07/2018 19,1 26,4 33,4 61 0 ----
RM FORMELLO Perazzeta 18/07/2018 20,5 27 33,6 45 0 ----
RM FRASCATI Prata Porci 18/07/2018 15,4 25,6 34,2 56 0 1.014
RM GENAZZANO Coop. La Sonnina 18/07/2018 16,3 24,3 31,9 56 0 1.014
RM GROTTAFERRATA Valle Marciana 18/07/2018 17,3 25,4 34 50 0 1.013
RM LICENZA Colle Franco 18/07/2018 13,9 23,1 32,8 59 0 1.013
RM MARCELLINA V. Campetella 18/07/2018 16,7 25,2 33,4 59 0 ----
RM MARINO Gotto d'Oro 18/07/2018 17,6 26,6 34,4 55 0 1.013
RM MONTECOMPATRI Colle Mattia 18/07/2018 16,1 25,3 34,5 55 0 1.014
RM MONTECOMPATRI Pantano Borghese 18/07/2018 N.D. N.D. N.D. N.D. N.D. N.D.
RM MONTELIBRETTI Bruciati 18/07/2018 16,1 25,9 35,6 56 0 ----
RM MONTEPORZIO Camaldoli 18/07/2018 16,1 23 30,9 54 0 1.014
RM MONTEROTONDO Grotta Marozza 18/07/2018 16,9 25,8 34,7 52 0 1.014
RM PALOMBARA Fonte Grande 18/07/2018 13,3 24,4 34,5 53 0 ----
RM ROMA Capocotta 18/07/2018 18,7 24,6 30,8 74 0 ----
RM ROMA Ponte di Nona 18/07/2018 18 26,6 34,6 58 0 1.013
RM ROMA Via Lanciani 38 18/07/2018 21,3 27,7 33,5 52 0 1.014
RM S. GREGORIO C. Faustiniano 18/07/2018 17,7 25,2 34 48 0 1.016
RM VELLETRI Cantina Sperimentale 18/07/2018 17,4 25,2 33,4 57 0 1.013
RM VELLETRI Prato Lungo 18/07/2018 20 26,6 32,8 58 0 ----
RM ZAGAROLO Santa Apollara 18/07/2018 17,7 25,7 33,3 54 0 ----
VT ACQUAPENDENTE Falconiera 18/07/2018 14,6 23,4 33,4 66 0 1.018
VT BAGNOREGIO Castell Cellesi 18/07/2018 19,7 24,8 31,1 48 0 ----
VT BASSANO R. Piano Mola 18/07/2018 18,5 24,6 33,7 55 0 1.012
VT BLERA Puntoni 18/07/2018 16,8 24,6 32,1 62 0 1.013
VT BOLSENA Capone 18/07/2018 17,3 25,1 34,3 64 0 1.019
VT BOLSENA Rentica 18/07/2018 17,3 24 30,6 62 0 ----
VT CANINO Diga Timone 18/07/2018 17,8 25,3 34,1 62 0 1.014
VT CANINO Pianacce 18/07/2018 16,4 25,7 33,3 59 0 1.014
VT CANINO San Valeriano 18/07/2018 19,1 25,9 32,1 56 0 ----
VT CELLENO Acquaforte 18/07/2018 17,3 24,4 31,6 68 0 ----
VT CORCHIANO Pantalone 18/07/2018 14,7 24,7 35,6 63 0 1.012
VT FARNESE Gressa 18/07/2018 16,5 23,8 30,6 57 0 ----
VT FARNESE Pian di Sala 18/07/2018 13,5 22,4 31,5 74 0 ----
VT GROTTE DI CASTRO Borghetto 18/07/2018 N.D. N.D. N.D. 63 N.D. N.D.
VT GROTTE DI CASTRO Purgatorio 18/07/2018 15 23,7 33,8 66 0 1.018
VT LATERA Centro Florovivaistico 18/07/2018 13 23 33,7 69 0 1.012
VT MONTALTO Le Murelle 18/07/2018 18,6 24,4 29,6 76 0 1.014
VT MONTALTO Pescia Romana 18/07/2018 18,3 26,3 33,5 60 0 1.014
VT MONTEFIASCONE Commenda 18/07/2018 18,4 25,1 32,9 65 0 ----
VT RONCIGLIONE Ponterotto 18/07/2018 15,9 24,2 32 56 0 ----
VT SORIANO CIMINO Pantane 18/07/2018 13,7 23,5 34,1 64 0 1.013
VT SORIANO CIMINO Poggio di Chia 18/07/2018 15,6 24 33 63 0 ----
VT TARQUINIA Portaccia 18/07/2018 19,1 25 30,7 76 0 ----
VT TUSCANIA Montebello 18/07/2018 20,2 25,2 31 63 0 ----
VT VETRALLA Marchionato 18/07/2018 17,2 24,6 31,4 63 0 ----
VT VITERBO Pisello 18/07/2018 17,8 25 31,7 64 0 ----
N.D. = Dati Non Disponibili
---- = Sensore non presente

Le misure esposte sono grezze, ovvero non sono state validate